METAR Data
IDs: Format: Raw Decoded Include TAF

Data at: 1750 UTC 23 Jan 2019

KWVI 231653Z AUTO 00000KT 10SM CLR 06/02 A3043 RMK AO2 SLP306 T00610022

KSNS 231653Z 14008KT 10SM CLR 06/01 A3044 RMK AO2 SLP318 T00610011

KMRY 231654Z 08007KT 10SM CLR 10/M02 A3042 RMK AO2 SLP314 T01001017

KSJC 231653Z 00000KT 10SM FEW090 08/01 A3045 RMK AO2 SLP309 T00780011

KSFO 231656Z 00000KT 10SM FEW200 09/06 A3044 RMK AO2 SLP308 T00940061 $

KHAF 231735Z AUTO 00000KT 6SM HZ CLR 13/05 A3044 RMK AO2